createdAt,value
2019-04-16T00:04:05.557Z,96789.95
2019-04-16T00:09:16.942Z,96802.36
2019-04-16T00:14:28.392Z,96805.41
2019-04-16T00:19:23.027Z,96804.92
2019-04-16T00:24:19.563Z,96802.89
2019-04-16T00:29:14.240Z,96800.79
2019-04-16T00:34:13.365Z,96796.66
2019-04-16T00:39:07.249Z,96813.72
2019-04-16T00:44:01.833Z,96801.37
2019-04-16T00:48:56.416Z,96807.20
2019-04-16T00:53:51.005Z,96804.70
2019-04-16T00:58:45.593Z,96798.56
2019-04-16T01:03:40.182Z,96795.52
2019-04-16T01:08:34.772Z,96798.92
2019-04-16T01:13:29.358Z,96806.70
2019-04-16T01:18:23.936Z,96806.34
2019-04-16T01:23:18.542Z,96798.01
2019-04-16T01:28:14.760Z,96803.98
2019-04-16T01:33:19.927Z,96803.03
2019-04-16T01:38:16.978Z,96808.23
2019-04-16T01:43:11.566Z,96807.71
2019-04-16T01:48:07.859Z,96799.02
2019-04-16T01:53:02.467Z,96809.02
2019-04-16T01:57:59.686Z,96818.18
2019-04-16T02:02:53.388Z,96816.97
2019-04-16T02:07:47.983Z,96817.77
2019-04-16T02:12:43.864Z,96814.46
2019-04-16T02:17:38.891Z,96817.31
2019-04-16T02:22:33.472Z,96819.06
2019-04-16T02:27:28.133Z,96819.06
2019-04-16T02:32:22.724Z,96825.42
2019-04-16T02:37:17.319Z,96828.16
2019-04-16T02:42:11.975Z,96826.63
2019-04-16T02:47:08.328Z,96831.96
2019-04-16T02:52:04.601Z,96833.02
2019-04-16T02:57:09.744Z,96834.74
2019-04-16T03:02:06.109Z,96829.69
2019-04-16T03:07:03.323Z,96832.53
2019-04-16T03:11:57.006Z,96826.89
2019-04-16T03:16:57.274Z,96832.67
2019-04-16T03:21:51.854Z,96828.70
2019-04-16T03:26:47.675Z,96840.71
2019-04-16T03:31:42.747Z,96840.23
2019-04-16T03:36:37.324Z,96838.11
2019-04-16T03:41:31.913Z,96835.39
2019-04-16T03:46:26.507Z,96836.45
2019-04-16T03:51:21.098Z,96836.20
2019-04-16T03:56:15.694Z,96831.54
2019-04-16T04:01:10.301Z,96834.08
2019-04-16T04:06:06.971Z,96840.69
2019-04-16T04:11:01.404Z,96838.52
2019-04-16T04:15:58.504Z,96834.49
2019-04-16T04:20:53.638Z,96840.54
2019-04-16T04:25:48.252Z,96839.02
2019-04-16T04:30:42.901Z,96843.96
2019-04-16T04:35:37.482Z,96840.20
2019-04-16T04:40:43.848Z,96848.11
2019-04-16T04:45:28.396Z,96843.30
2019-04-16T04:50:22.997Z,96845.48
2019-04-16T04:55:17.672Z,96851.80
2019-04-16T05:00:13.057Z,96855.31
2019-04-16T05:05:11.057Z,96849.91
2019-04-16T05:10:08.423Z,96851.63
2019-04-16T05:15:04.015Z,96848.33
2019-04-16T05:19:58.657Z,96848.23
2019-04-16T05:24:53.305Z,96850.75
2019-04-16T05:29:48.929Z,96851.52
2019-04-16T05:34:44.384Z,96853.93
2019-04-16T05:39:38.964Z,96859.36
2019-04-16T05:44:34.191Z,96859.00
2019-04-16T05:49:29.102Z,96858.08
2019-04-16T05:54:35.515Z,96861.26
2019-04-16T05:59:33.550Z,96869.45
2019-04-16T06:04:26.451Z,96880.40
2019-04-16T06:09:21.120Z,96879.54
2019-04-16T06:14:19.664Z,96887.96
2019-04-16T06:19:22.318Z,96896.33
2019-04-16T06:24:21.292Z,96904.26
2019-04-16T06:29:15.694Z,96900.52
2019-04-16T06:34:17.928Z,96894.76
2019-04-16T06:39:28.917Z,96898.00
2019-04-16T06:44:24.311Z,96897.66
2019-04-16T06:49:30.337Z,96896.89
2019-04-16T06:59:59.570Z,96902.92
2019-04-16T07:05:12.741Z,96905.08
2019-04-16T07:10:15.935Z,96904.95
2019-04-16T07:15:12.290Z,96907.77
2019-04-16T07:20:07.435Z,96902.83
2019-04-16T07:25:04.440Z,96904.63
2019-04-16T07:30:04.859Z,96902.46
2019-04-16T07:35:07.045Z,96902.19
2019-04-16T07:40:08.355Z,96899.52
2019-04-16T07:45:12.533Z,96893.06
2019-04-16T07:50:25.623Z,96897.14
2019-04-16T07:55:37.157Z,96901.82
2019-04-16T08:00:40.557Z,96909.34
2019-04-16T08:05:42.503Z,96891.81
2019-04-16T08:10:37.125Z,96901.02
2019-04-16T08:15:32.807Z,96904.39
2019-04-16T08:20:32.090Z,96899.49
2019-04-16T08:25:40.525Z,96898.10
2019-04-16T08:30:39.491Z,96893.53
2019-04-16T08:35:41.356Z,96888.47
2019-04-16T08:40:46.239Z,96894.85
2019-04-16T08:45:49.172Z,96897.72
2019-04-16T08:50:57.947Z,96900.11
2019-04-16T08:55:56.488Z,96892.00
2019-04-16T09:00:58.196Z,96899.59
2019-04-16T09:06:03.700Z,96896.18
2019-04-16T09:11:04.539Z,96897.94
2019-04-16T09:16:05.729Z,96889.55
2019-04-16T09:21:09.925Z,96893.28
2019-04-16T09:26:18.687Z,96890.08
2019-04-16T09:31:37.757Z,96889.74
2019-04-16T09:36:47.813Z,96883.58
2019-04-16T09:41:49.965Z,96883.61
2019-04-16T09:46:59.434Z,96883.41
2019-04-16T09:51:56.565Z,96878.31
2019-04-16T09:56:56.790Z,96868.80
2019-04-16T10:01:58.714Z,96868.58
2019-04-16T10:07:03.780Z,96876.02
2019-04-16T10:12:05.027Z,96870.95
2019-04-16T10:17:05.913Z,96867.17
2019-04-16T10:22:09.382Z,96856.24
2019-04-16T10:27:11.692Z,96869.48
2019-04-16T10:32:18.166Z,96864.37
2019-04-16T10:37:20.049Z,96853.89
2019-04-16T10:42:36.003Z,96851.47
2019-04-16T10:47:55.313Z,96847.02
2019-04-16T10:53:15.082Z,96841.59
2019-04-16T10:58:33.758Z,96837.17
2019-04-16T11:03:42.940Z,96832.55
2019-04-16T11:08:49.437Z,96831.56
2019-04-16T11:13:59.660Z,96823.27
2019-04-16T11:18:55.101Z,96825.38
2019-04-16T11:24:16.394Z,96818.80
2019-04-16T11:29:20.497Z,96808.97
2019-04-16T11:34:23.217Z,96812.20
2019-04-16T11:39:23.056Z,96810.00
2019-04-16T11:44:22.423Z,96799.96
2019-04-16T11:49:23.177Z,96812.82
2019-04-16T11:54:22.561Z,96807.53
2019-04-16T11:59:22.851Z,96804.55
2019-04-16T12:04:31.649Z,96800.06
2019-04-16T12:09:44.964Z,96805.06
2019-04-16T12:14:55.103Z,96799.36
2019-04-16T12:20:02.796Z,96800.13
2019-04-16T12:25:23.224Z,96794.67
2019-04-16T12:30:38.597Z,96798.08
2019-04-16T12:35:55.448Z,96801.39
2019-04-16T12:41:16.114Z,96803.50
2019-04-16T12:46:21.763Z,96795.98
2019-04-16T12:51:21.886Z,96789.45
2019-04-16T12:56:39.997Z,96779.63
2019-04-16T13:01:48.187Z,96781.05
2019-04-16T13:06:47.096Z,96783.54
2019-04-16T13:11:55.075Z,96775.20
2019-04-16T13:16:51.331Z,96779.27
2019-04-16T13:21:51.047Z,96780.28
2019-04-16T13:26:50.359Z,96783.20
2019-04-16T13:31:45.039Z,96781.10
2019-04-16T13:36:39.672Z,96785.36
2019-04-16T13:41:34.375Z,96790.86
2019-04-16T13:46:30.151Z,96784.83
2019-04-16T13:51:32.019Z,96782.38
2019-04-16T13:56:40.042Z,96783.17
2019-04-16T14:01:39.272Z,96775.56
2019-04-16T14:06:33.129Z,96779.70
2019-04-16T14:11:27.723Z,96775.91
2019-04-16T14:16:22.311Z,96778.61
2019-04-16T14:21:17.826Z,96777.73
2019-04-16T14:26:12.662Z,96785.66
2019-04-16T14:31:07.857Z,96778.38
2019-04-16T14:36:02.644Z,96778.11
2019-04-16T14:40:57.342Z,96780.70
2019-04-16T14:45:59.122Z,96775.97
2019-04-16T14:50:52.013Z,96775.45
2019-04-16T14:55:59.703Z,96778.20
2019-04-16T15:00:48.969Z,96783.23
2019-04-16T15:05:51.041Z,96775.34
2019-04-16T15:11:03.775Z,96782.28
2019-04-16T15:16:10.797Z,96792.22
2019-04-16T15:21:16.290Z,96787.70
2019-04-16T15:26:18.409Z,96798.31
2019-04-16T15:31:20.614Z,96794.02
2019-04-16T15:36:19.410Z,96799.11
2019-04-16T15:41:20.523Z,96799.84
2019-04-16T15:46:35.212Z,96809.30
2019-04-16T15:51:39.947Z,96808.46
2019-04-16T15:56:37.265Z,96806.03
2019-04-16T16:01:35.613Z,96810.58
2019-04-16T16:06:31.920Z,96824.16
2019-04-16T16:11:28.165Z,96817.78
2019-04-16T16:16:22.755Z,96820.38
2019-04-16T16:21:17.356Z,96826.55
2019-04-16T16:26:12.608Z,96827.95
2019-04-16T16:31:07.196Z,96836.44
2019-04-16T16:36:01.795Z,96832.46
2019-04-16T16:40:56.420Z,96835.95
2019-04-16T16:46:08.796Z,96845.48
2019-04-16T16:51:03.622Z,96846.55
2019-04-16T16:56:00.338Z,96854.27
2019-04-16T17:00:56.340Z,96849.48
2019-04-16T17:05:52.364Z,96855.59
2019-04-16T17:10:47.269Z,96850.30
2019-04-16T17:15:41.899Z,96853.47
2019-04-16T17:20:38.311Z,96859.84
2019-04-16T17:25:36.512Z,96861.13
2019-04-16T17:30:29.653Z,96863.00
2019-04-16T17:35:24.310Z,96868.81
2019-04-16T17:40:26.779Z,96866.43
2019-04-16T17:45:35.218Z,96866.09
2019-04-16T17:50:51.052Z,96883.30
2019-04-16T17:55:51.818Z,96883.80
2019-04-16T18:00:49.489Z,96899.95
2019-04-16T18:05:46.001Z,96905.72
2019-04-16T18:10:46.403Z,96912.27
2019-04-16T18:15:43.475Z,96925.50
2019-04-16T18:20:40.183Z,96940.47
2019-04-16T18:25:56.782Z,96951.34
2019-04-16T18:30:54.263Z,96956.73
2019-04-16T18:36:06.775Z,96969.15
2019-04-16T18:41:19.428Z,96977.63
2019-04-16T18:46:21.868Z,96988.05
2019-04-16T18:51:16.751Z,97003.77
2019-04-16T18:56:11.739Z,97013.65
2019-04-16T19:01:08.349Z,97019.55
2019-04-16T19:06:03.926Z,97027.95
2019-04-16T19:10:58.842Z,97042.00
2019-04-16T19:15:54.177Z,97051.47
2019-04-16T19:20:51.871Z,97064.30
2019-04-16T19:25:46.167Z,97071.11
2019-04-16T19:30:41.114Z,97079.53
2019-04-16T19:35:36.064Z,97089.20
2019-04-16T19:40:30.963Z,97106.04
2019-04-16T19:45:25.863Z,97115.63
2019-04-16T19:50:20.858Z,97122.11
2019-04-16T19:55:15.773Z,97136.55
2019-04-16T20:00:10.977Z,97140.18
2019-04-16T20:05:06.769Z,97151.81
2019-04-16T20:10:01.758Z,97154.53
2019-04-16T20:14:56.883Z,97164.63
2019-04-16T20:20:01.479Z,97165.92
2019-04-16T20:24:59.231Z,97169.08
2019-04-16T20:29:54.751Z,97168.97
2019-04-16T20:34:49.625Z,97167.18
2019-04-16T20:39:44.478Z,97173.06
2019-04-16T20:44:39.398Z,97167.42
2019-04-16T20:49:34.197Z,97163.06
2019-04-16T20:54:28.945Z,97160.64
2019-04-16T20:59:23.551Z,97166.27
2019-04-16T21:04:18.155Z,97166.92
2019-04-16T21:09:12.747Z,97157.91
2019-04-16T21:14:07.345Z,97167.35
2019-04-16T21:19:01.929Z,97166.27
2019-04-16T21:23:56.804Z,97173.06
2019-04-16T21:28:58.529Z,97174.98
2019-04-16T21:34:08.652Z,97183.95
2019-04-16T21:39:04.855Z,97182.33
2019-04-16T21:43:59.446Z,97180.27
2019-04-16T21:48:55.919Z,97178.23
2019-04-16T21:53:50.369Z,97182.20
2019-04-16T21:58:46.657Z,97189.66
2019-04-16T22:03:43.007Z,97192.36
2019-04-16T22:08:37.821Z,97197.13
2019-04-16T22:13:32.425Z,97199.09
2019-04-16T22:18:27.009Z,97202.38
2019-04-16T22:23:21.604Z,97206.30
2019-04-16T22:28:16.191Z,97199.02
2019-04-16T22:33:10.781Z,97208.93
2019-04-16T22:38:05.367Z,97210.77
2019-04-16T22:43:17.430Z,97205.06
2019-04-16T22:48:12.111Z,97205.14
2019-04-16T22:53:06.708Z,97207.18
2019-04-16T22:58:03.594Z,97209.09
2019-04-16T23:02:57.617Z,97214.34
2019-04-16T23:07:52.211Z,97215.56
2019-04-16T23:12:46.811Z,97215.56
2019-04-16T23:17:42.823Z,97218.13
2019-04-16T23:22:37.781Z,97220.63
2019-04-16T23:27:37.206Z,97216.81
2019-04-16T23:32:28.870Z,97222.44
2019-04-16T23:37:24.072Z,97213.02
2019-04-16T23:42:19.746Z,97222.16
2019-04-16T23:47:26.429Z,97224.22
2019-04-16T23:52:28.454Z,97224.94
2019-04-16T23:57:24.736Z,97229.03
